Time,TemperatureF,DewpointF,PressureIn,WindDirection,WindDirectionDegrees,WindSpeedMPH,WindSpeedGustMPH,Humidity,HourlyPrecipIn,Conditions,Clouds,dailyrainin,SoftwareType,DateUTC
2013-02-15 00:05:00,39.9,36.9,29.80,North,0,0.0,0.0,89,0.00,,,0.00,pywws,2013-02-15 00:05:00,
2013-02-15 00:10:00,39.9,36.9,29.80,North,0,0.0,0.0,89,0.00,,,0.00,pywws,2013-02-15 00:10:00,
2013-02-15 00:16:00,39.0,36.3,29.80,East,90,0.0,0.0,90,0.00,,,0.00,pywws,2013-02-15 00:16:00,
2013-02-15 00:21:00,38.8,36.4,29.80,SE,135,0.0,0.0,91,0.00,,,0.00,pywws,2013-02-15 00:21:00,
2013-02-15 00:26:00,38.8,36.7,29.80,SSW,202,0.0,0.0,92,0.00,,,0.00,pywws,2013-02-15 00:26:00,
2013-02-15 00:31:00,38.7,36.5,29.81,NE,45,0.0,0.0,92,0.00,,,0.00,pywws,2013-02-15 00:31:00,
2013-02-15 00:36:00,38.7,36.8,29.81,NE,45,0.0,0.0,93,0.00,,,0.00,pywws,2013-02-15 00:36:00,
2013-02-15 00:42:00,38.7,36.8,29.80,SE,135,0.0,0.0,93,0.00,,,0.00,pywws,2013-02-15 00:42:00,
2013-02-15 00:47:00,38.7,36.8,29.81,South,180,0.0,0.0,93,0.00,,,0.00,pywws,2013-02-15 00:47:00,
2013-02-15 00:52:00,38.5,36.6,29.81,East,90,0.0,0.0,93,0.00,,,0.00,pywws,2013-02-15 00:52:00,
2013-02-15 00:57:00,38.5,36.6,29.81,West,270,0.0,0.0,93,0.00,,,0.00,pywws,2013-02-15 00:57:00,
2013-02-15 01:01:00,38.5,36.6,29.81,NE,45,0.0,0.0,93,0.00,,,0.00,pywws,2013-02-15 01:01:00,
2013-02-15 01:04:00,38.5,36.6,29.81,NE,45,0.0,0.0,93,0.00,,,0.00,pywws,2013-02-15 01:04:00,
2013-02-15 01:07:00,38.5,36.6,29.81,West,270,0.0,0.0,93,0.00,,,0.00,pywws,2013-02-15 01:07:00,
2013-02-15 01:13:00,38.5,36.6,29.81,NE,45,0.0,0.0,93,0.00,,,0.00,pywws,2013-02-15 01:13:00,
2013-02-15 01:18:00,38.1,36.5,29.82,East,90,0.0,0.0,94,0.00,,,0.00,pywws,2013-02-15 01:18:00,
2013-02-15 01:23:00,38.1,36.5,29.82,North,0,0.0,0.0,94,0.00,,,0.00,pywws,2013-02-15 01:23:00,
2013-02-15 01:28:00,37.9,36.4,29.81,NE,45,0.0,0.0,94,0.00,,,0.00,pywws,2013-02-15 01:28:00,
2013-02-15 01:33:00,37.8,36.2,29.82,North,0,0.0,0.0,94,0.00,,,0.00,pywws,2013-02-15 01:33:00,
2013-02-15 01:38:00,37.6,36.0,29.82,East,90,0.0,0.0,94,0.00,,,0.00,pywws,2013-02-15 01:38:00,
2013-02-15 01:43:00,37.6,36.0,29.82,East,90,0.0,0.0,94,0.00,,,0.00,pywws,2013-02-15 01:43:00,
2013-02-15 01:48:00,37.4,36.1,29.82,South,180,0.0,0.0,95,0.00,,,0.00,pywws,2013-02-15 01:48:00,
2013-02-15 01:53:00,37.4,36.1,29.82,NW,315,0.0,0.0,95,0.00,,,0.00,pywws,2013-02-15 01:53:00,
2013-02-15 01:58:00,37.4,36.1,29.83,East,90,0.0,0.0,95,0.00,,,0.00,pywws,2013-02-15 01:58:00,
2013-02-15 02:05:00,37.4,36.1,29.82,East,90,0.0,0.0,95,0.00,,,0.00,pywws,2013-02-15 02:05:00,
2013-02-15 02:10:00,37.8,36.5,29.82,NW,315,0.0,0.0,95,0.00,,,0.00,pywws,2013-02-15 02:10:00,
2013-02-15 02:16:00,37.6,36.3,29.83,NW,315,0.0,0.0,95,0.00,,,0.00,pywws,2013-02-15 02:16:00,
2013-02-15 02:21:00,37.6,36.3,29.82,NE,45,0.0,0.0,95,0.00,,,0.00,pywws,2013-02-15 02:21:00,
2013-02-15 02:26:00,37.6,36.3,29.82,SE,135,0.0,0.0,95,0.00,,,0.00,pywws,2013-02-15 02:26:00,
2013-02-15 02:31:00,37.6,36.3,29.82,South,180,0.0,0.0,95,0.00,,,0.00,pywws,2013-02-15 02:31:00,
2013-02-15 02:36:00,37.6,36.3,29.83,South,180,0.0,0.0,95,0.00,,,0.00,pywws,2013-02-15 02:36:00,
2013-02-15 02:41:00,37.8,36.5,29.83,West,270,0.0,0.0,95,0.00,,,0.00,pywws,2013-02-15 02:41:00,
2013-02-15 02:46:00,37.6,36.3,29.83,SW,225,0.0,0.0,95,0.00,,,0.00,pywws,2013-02-15 02:46:00,
2013-02-15 02:52:00,37.6,36.3,29.83,NE,45,0.0,0.0,95,0.00,,,0.00,pywws,2013-02-15 02:52:00,
2013-02-15 02:57:00,37.4,36.1,29.83,SW,225,0.0,0.0,95,0.00,,,0.00,pywws,2013-02-15 02:57:00,
2013-02-15 03:05:00,37.2,35.9,29.83,North,0,0.0,0.0,95,0.00,,,0.00,pywws,2013-02-15 03:05:00,
2013-02-15 03:10:00,37.2,35.9,29.83,SE,135,0.0,0.0,95,0.00,,,0.00,pywws,2013-02-15 03:10:00,
2013-02-15 03:16:00,37.2,35.9,29.83,North,0,0.0,0.0,95,0.00,,,0.00,pywws,2013-02-15 03:16:00,
2013-02-15 03:21:00,37.2,35.9,29.84,West,270,0.0,0.0,95,0.00,,,0.00,pywws,2013-02-15 03:21:00,
2013-02-15 03:26:00,37.4,36.1,29.84,North,0,0.0,0.0,95,0.00,,,0.00,pywws,2013-02-15 03:26:00,
2013-02-15 03:31:00,37.2,35.9,29.84,SE,135,0.0,0.0,95,0.00,,,0.00,pywws,2013-02-15 03:31:00,
2013-02-15 03:36:00,37.4,36.1,29.84,North,0,0.0,0.0,95,0.00,,,0.00,pywws,2013-02-15 03:36:00,
2013-02-15 03:41:00,37.6,36.3,29.84,East,90,0.0,0.0,95,0.00,,,0.00,pywws,2013-02-15 03:41:00,
2013-02-15 03:47:00,37.6,36.3,29.84,NE,45,0.0,0.0,95,0.00,,,0.00,pywws,2013-02-15 03:47:00,
2013-02-15 03:52:00,37.6,36.3,29.84,North,0,0.0,0.0,95,0.00,,,0.00,pywws,2013-02-15 03:52:00,
2013-02-15 03:57:00,37.8,36.5,29.84,South,180,0.0,0.0,95,0.00,,,0.00,pywws,2013-02-15 03:57:00,
2013-02-15 04:05:00,37.8,36.5,29.85,NE,45,0.0,0.0,95,0.00,,,0.00,pywws,2013-02-15 04:05:00,
2013-02-15 04:10:00,37.9,36.6,29.85,NW,315,0.0,0.0,95,0.00,,,0.00,pywws,2013-02-15 04:10:00,
2013-02-15 04:16:00,38.1,36.8,29.85,North,0,0.0,0.0,95,0.00,,,0.00,pywws,2013-02-15 04:16:00,
2013-02-15 04:21:00,38.1,36.8,29.85,NE,45,0.0,0.0,95,0.00,,,0.00,pywws,2013-02-15 04:21:00,
2013-02-15 04:26:00,38.3,37.0,29.85,West,270,0.0,0.0,95,0.00,,,0.00,pywws,2013-02-15 04:26:00,
2013-02-15 04:31:00,38.7,37.4,29.85,NW,315,0.0,0.0,95,0.00,,,0.00,pywws,2013-02-15 04:31:00,
2013-02-15 04:36:00,38.5,37.2,29.85,North,0,0.0,0.0,95,0.00,,,0.00,pywws,2013-02-15 04:36:00,
2013-02-15 04:41:00,38.5,37.2,29.85,West,270,0.0,0.0,95,0.00,,,0.00,pywws,2013-02-15 04:41:00,
2013-02-15 04:47:00,38.5,36.9,29.85,NE,45,0.0,0.0,94,0.00,,,0.00,pywws,2013-02-15 04:47:00,
2013-02-15 04:52:00,38.3,36.7,29.85,East,90,0.0,0.0,94,0.00,,,0.00,pywws,2013-02-15 04:52:00,
2013-02-15 04:57:00,38.1,36.5,29.85,NW,315,0.0,0.0,94,0.00,,,0.00,pywws,2013-02-15 04:57:00,
2013-02-15 05:07:00,38.1,36.5,29.86,NW,315,0.0,0.0,94,0.00,,,0.00,pywws,2013-02-15 05:07:00,
2013-02-15 05:12:00,38.1,36.5,29.86,NW,315,0.0,0.0,94,0.00,,,0.00,pywws,2013-02-15 05:12:00,
2013-02-15 05:17:00,37.9,36.4,29.86,NW,315,0.0,0.0,94,0.00,,,0.00,pywws,2013-02-15 05:17:00,
2013-02-15 05:23:00,37.8,36.2,29.86,North,0,0.0,0.0,94,0.00,,,0.00,pywws,2013-02-15 05:23:00,
2013-02-15 05:28:00,37.6,36.0,29.86,NE,45,0.0,0.0,94,0.00,,,0.00,pywws,2013-02-15 05:28:00,
2013-02-15 05:33:00,37.4,35.6,29.86,North,0,0.0,0.0,93,0.00,,,0.00,pywws,2013-02-15 05:33:00,
2013-02-15 05:39:00,37.2,35.7,29.86,NW,315,0.0,0.0,94,0.00,,,0.00,pywws,2013-02-15 05:39:00,
2013-02-15 05:44:00,37.0,35.5,29.86,North,0,0.0,0.0,94,0.00,,,0.00,pywws,2013-02-15 05:44:00,
2013-02-15 05:49:00,36.7,35.1,29.86,NE,45,0.0,0.0,94,0.00,,,0.00,pywws,2013-02-15 05:49:00,
2013-02-15 05:54:00,36.5,34.9,29.86,East,90,0.0,0.0,94,0.00,,,0.00,pywws,2013-02-15 05:54:00,
2013-02-15 06:01:00,36.3,34.8,29.87,SE,135,0.0,0.0,94,0.00,,,0.00,pywws,2013-02-15 06:01:00,
2013-02-15 06:06:00,36.3,34.8,29.86,SE,135,0.0,0.0,94,0.00,,,0.00,pywws,2013-02-15 06:06:00,
2013-02-15 06:11:00,35.6,34.3,29.86,SE,135,0.0,0.0,95,0.00,,,0.00,pywws,2013-02-15 06:11:00,
2013-02-15 06:16:00,35.4,34.1,29.87,SE,135,0.0,0.0,95,0.00,,,0.00,pywws,2013-02-15 06:16:00,
2013-02-15 06:21:00,35.2,34.0,29.87,NE,45,0.0,0.0,95,0.00,,,0.00,pywws,2013-02-15 06:21:00,
2013-02-15 06:26:00,35.2,34.0,29.87,SE,135,0.0,0.0,95,0.00,,,0.00,pywws,2013-02-15 06:26:00,
2013-02-15 06:31:00,35.2,34.0,29.87,SE,135,0.0,0.0,95,0.00,,,0.00,pywws,2013-02-15 06:31:00,
2013-02-15 06:34:00,35.1,33.8,29.87,NE,45,0.0,0.0,95,0.00,,,0.00,pywws,2013-02-15 06:34:00,
2013-02-15 06:36:00,35.1,33.8,29.87,NE,45,0.0,0.0,95,0.00,,,0.00,pywws,2013-02-15 06:36:00,
2013-02-15 06:37:00,34.7,33.4,29.87,SE,135,0.0,0.0,95,0.00,,,0.00,pywws,2013-02-15 06:37:00,
2013-02-15 06:40:00,34.7,33.4,29.87,SE,135,0.0,0.0,95,0.00,,,0.00,pywws,2013-02-15 06:40:00,
2013-02-15 06:41:00,35.1,33.8,29.87,NE,45,0.0,0.0,95,0.00,,,0.00,pywws,2013-02-15 06:41:00,
2013-02-15 06:43:00,34.7,33.7,29.87,SE,135,0.0,0.0,96,0.00,,,0.00,pywws,2013-02-15 06:43:00,
2013-02-15 06:46:00,34.7,33.7,29.87,NE,45,0.0,0.0,96,0.00,,,0.00,pywws,2013-02-15 06:46:00,
2013-02-15 06:49:00,34.7,33.7,29.87,East,90,0.0,0.0,96,0.00,,,0.00,pywws,2013-02-15 06:49:00,
2013-02-15 06:52:00,34.7,33.7,29.87,East,90,0.0,0.0,96,0.00,,,0.00,pywws,2013-02-15 06:52:00,
2013-02-15 06:55:00,34.9,33.9,29.87,East,90,0.0,0.0,96,0.00,,,0.00,pywws,2013-02-15 06:55:00,
2013-02-15 06:58:00,34.9,33.9,29.88,East,90,0.0,0.0,96,0.00,,,0.00,pywws,2013-02-15 06:58:00,
2013-02-15 07:01:00,34.9,33.9,29.88,East,90,0.0,0.0,96,0.00,,,0.00,pywws,2013-02-15 07:01:00,
2013-02-15 07:04:00,34.9,33.9,29.88,East,90,0.0,0.0,96,0.00,,,0.00,pywws,2013-02-15 07:04:00,
2013-02-15 07:07:00,34.9,33.9,29.89,East,90,0.0,0.0,96,0.00,,,0.00,pywws,2013-02-15 07:07:00,
2013-02-15 07:10:00,35.1,34.3,29.88,SE,135,0.0,0.0,97,0.00,,,0.00,pywws,2013-02-15 07:10:00,
2013-02-15 07:13:00,34.9,34.1,29.88,SE,135,0.0,0.0,97,0.00,,,0.00,pywws,2013-02-15 07:13:00,
2013-02-15 07:25:00,34.9,34.1,29.89,SE,135,0.0,0.0,97,0.00,,,0.00,pywws,2013-02-15 07:25:00,
2013-02-15 07:30:00,35.4,34.9,29.89,East,90,0.0,0.0,98,0.00,,,0.00,pywws,2013-02-15 07:30:00,
2013-02-15 07:35:00,35.8,35.3,29.90,NE,45,0.0,0.0,98,0.00,,,0.00,pywws,2013-02-15 07:35:00,
2013-02-15 07:40:00,36.0,35.5,29.90,SE,135,0.0,0.0,98,0.00,,,0.00,pywws,2013-02-15 07:40:00,
2013-02-15 07:45:00,36.3,35.8,29.90,SE,135,0.0,0.0,98,0.00,,,0.00,pywws,2013-02-15 07:45:00,
2013-02-15 07:51:00,36.7,36.2,29.90,East,90,0.0,0.0,98,0.00,,,0.00,pywws,2013-02-15 07:51:00,
2013-02-15 07:55:00,36.9,36.3,29.90,North,0,0.0,0.0,98,0.00,,,0.00,pywws,2013-02-15 07:55:00,
2013-02-15 07:56:00,36.9,36.3,29.90,SSE,158,0.0,0.0,98,0.00,,,0.00,pywws,2013-02-15 07:56:00,
2013-02-15 07:58:00,37.0,36.5,29.90,NE,45,0.0,0.0,98,0.00,,,0.00,pywws,2013-02-15 07:58:00,
2013-02-15 08:01:00,36.9,36.3,29.90,North,0,0.0,0.0,98,0.00,,,0.00,pywws,2013-02-15 08:01:00,
2013-02-15 08:07:00,37.0,36.5,29.90,NE,45,0.0,0.0,98,0.00,,,0.00,pywws,2013-02-15 08:07:00,
2013-02-15 08:12:00,37.6,37.1,29.91,SE,135,0.0,0.0,98,0.00,,,0.00,pywws,2013-02-15 08:12:00,
2013-02-15 08:17:00,37.6,37.1,29.91,SSE,158,0.0,0.0,98,0.00,,,0.00,pywws,2013-02-15 08:17:00,
2013-02-15 08:22:00,37.8,37.2,29.91,NW,315,0.0,0.0,98,0.00,,,0.00,pywws,2013-02-15 08:22:00,
2013-02-15 08:28:00,38.1,37.3,29.91,NE,45,0.0,0.0,97,0.00,,,0.00,pywws,2013-02-15 08:28:00,
2013-02-15 08:33:00,38.3,37.5,29.91,NE,45,0.0,0.0,97,0.00,,,0.00,pywws,2013-02-15 08:33:00,
2013-02-15 08:38:00,39.0,38.0,29.91,NW,315,0.0,0.0,96,0.00,,,0.00,pywws,2013-02-15 08:38:00,
2013-02-15 08:43:00,39.2,37.9,29.91,NW,315,0.0,0.0,95,0.00,,,0.00,pywws,2013-02-15 08:43:00,
2013-02-15 08:48:00,39.6,38.0,29.91,NW,315,0.0,0.0,94,0.00,,,0.00,pywws,2013-02-15 08:48:00,
2013-02-15 08:53:00,39.6,38.0,29.91,NW,315,0.0,0.0,94,0.00,,,0.00,pywws,2013-02-15 08:53:00,
2013-02-15 08:58:00,40.1,38.0,29.91,West,270,0.0,0.0,92,0.00,,,0.00,pywws,2013-02-15 08:58:00,
2013-02-15 09:05:00,40.1,38.0,29.92,West,270,0.0,0.0,92,0.00,,,0.00,pywws,2013-02-15 09:05:00,
2013-02-15 09:10:00,40.1,38.0,29.92,West,270,0.0,0.0,92,0.00,,,0.00,pywws,2013-02-15 09:10:00,
2013-02-15 09:16:00,40.6,38.2,29.92,NE,45,0.0,0.0,91,0.00,,,0.00,pywws,2013-02-15 09:16:00,
2013-02-15 09:21:00,41.4,38.4,29.92,West,270,0.0,0.0,89,0.00,,,0.00,pywws,2013-02-15 09:21:00,
2013-02-15 09:26:00,41.7,38.4,29.92,NW,315,0.0,0.0,88,0.00,,,0.00,pywws,2013-02-15 09:26:00,
2013-02-15 09:31:00,41.9,38.3,29.92,NW,315,0.0,0.0,87,0.00,,,0.00,pywws,2013-02-15 09:31:00,
2013-02-15 09:36:00,42.1,38.2,29.92,NW,315,0.0,0.0,86,0.00,,,0.00,pywws,2013-02-15 09:36:00,
2013-02-15 09:42:00,42.3,38.4,29.92,North,0,0.0,0.0,86,0.00,,,0.00,pywws,2013-02-15 09:42:00,
2013-02-15 09:47:00,42.3,38.1,29.93,NW,315,0.0,0.0,85,0.00,,,0.00,pywws,2013-02-15 09:47:00,
2013-02-15 09:52:00,42.4,38.3,29.93,South,180,0.0,0.0,85,0.00,,,0.00,pywws,2013-02-15 09:52:00,
2013-02-15 09:57:00,43.2,39.0,29.92,SW,225,0.0,0.0,85,0.00,,,0.00,pywws,2013-02-15 09:57:00,
2013-02-15 10:05:00,43.2,39.0,29.92,SW,225,0.0,0.0,85,0.00,,,0.00,pywws,2013-02-15 10:05:00,
2013-02-15 10:10:00,43.3,39.1,29.93,NW,315,0.0,0.0,85,0.00,,,0.00,pywws,2013-02-15 10:10:00,
2013-02-15 10:16:00,44.4,39.3,29.93,North,0,0.0,0.0,82,0.00,,,0.00,pywws,2013-02-15 10:16:00,
2013-02-15 10:21:00,45.1,39.3,29.93,South,180,0.0,0.0,80,0.00,,,0.00,pywws,2013-02-15 10:21:00,
2013-02-15 10:26:00,46.2,40.1,29.93,NW,315,0.0,0.0,79,0.00,,,0.00,pywws,2013-02-15 10:26:00,
2013-02-15 10:31:00,47.1,39.9,29.94,NNW,338,0.0,0.0,76,0.00,,,0.00,pywws,2013-02-15 10:31:00,
2013-02-15 10:36:00,47.7,40.1,29.93,West,270,0.0,0.0,75,0.00,,,0.00,pywws,2013-02-15 10:36:00,
2013-02-15 10:42:00,47.8,39.6,29.93,South,180,0.0,0.0,73,0.00,,,0.00,pywws,2013-02-15 10:42:00,
2013-02-15 10:47:00,47.7,39.8,29.93,SE,135,0.0,0.0,74,0.00,,,0.00,pywws,2013-02-15 10:47:00,
2013-02-15 10:52:00,47.8,39.6,29.93,North,0,0.0,0.0,73,0.00,,,0.00,pywws,2013-02-15 10:52:00,
2013-02-15 10:57:00,47.7,39.4,29.94,West,270,0.0,0.0,73,0.00,,,0.00,pywws,2013-02-15 10:57:00,
2013-02-15 11:05:00,47.7,39.4,29.94,SSW,202,0.0,0.0,73,0.00,,,0.00,pywws,2013-02-15 11:05:00,
2013-02-15 11:10:00,47.7,39.4,29.94,WNW,292,0.0,0.0,73,0.00,,,0.00,pywws,2013-02-15 11:10:00,
2013-02-15 11:16:00,48.4,39.8,29.94,South,180,0.0,0.0,72,0.00,,,0.00,pywws,2013-02-15 11:16:00,
2013-02-15 11:21:00,49.3,39.9,29.94,NW,315,0.0,0.0,70,0.00,,,0.00,pywws,2013-02-15 11:21:00,
2013-02-15 11:26:00,49.3,39.5,29.94,West,270,0.0,0.0,69,0.00,,,0.00,pywws,2013-02-15 11:26:00,
2013-02-15 11:31:00,49.1,39.0,29.94,NW,315,0.0,0.0,68,0.00,,,0.00,pywws,2013-02-15 11:31:00,
2013-02-15 11:36:00,49.1,39.7,29.94,NW,315,0.0,0.0,70,0.00,,,0.00,pywws,2013-02-15 11:36:00,
2013-02-15 11:41:00,49.5,39.3,29.94,West,270,0.0,0.0,68,0.00,,,0.00,pywws,2013-02-15 11:41:00,
2013-02-15 11:46:00,49.6,39.1,29.94,SW,225,0.0,0.0,67,0.00,,,0.00,pywws,2013-02-15 11:46:00,
2013-02-15 11:52:00,49.6,39.9,29.94,SSW,202,0.0,0.0,69,0.00,,,0.00,pywws,2013-02-15 11:52:00,
2013-02-15 11:57:00,50.0,39.9,29.94,West,270,0.0,0.0,68,0.00,,,0.00,pywws,2013-02-15 11:57:00,
2013-02-15 12:05:00,50.4,39.4,29.94,SW,225,0.0,0.0,66,0.00,,,0.00,pywws,2013-02-15 12:05:00,
2013-02-15 12:10:00,49.6,39.1,29.94,WNW,292,0.0,0.0,67,0.00,,,0.00,pywws,2013-02-15 12:10:00,
2013-02-15 12:16:00,48.9,38.8,29.94,NW,315,0.0,0.0,68,0.00,,,0.00,pywws,2013-02-15 12:16:00,
2013-02-15 12:21:00,48.4,38.7,29.94,NW,315,0.0,0.0,69,0.00,,,0.00,pywws,2013-02-15 12:21:00,
2013-02-15 12:26:00,48.2,38.5,29.94,SW,225,0.0,0.0,69,0.00,,,0.00,pywws,2013-02-15 12:26:00,
2013-02-15 12:31:00,48.4,39.1,29.94,West,270,0.0,0.0,70,0.00,,,0.00,pywws,2013-02-15 12:31:00,
2013-02-15 12:36:00,49.5,39.0,29.93,NNW,338,0.0,0.0,67,0.00,,,0.00,pywws,2013-02-15 12:36:00,
2013-02-15 12:42:00,50.2,39.7,29.94,SSW,202,0.0,0.0,67,0.00,,,0.00,pywws,2013-02-15 12:42:00,
2013-02-15 12:47:00,50.4,38.2,29.94,NW,315,0.0,0.0,63,0.00,,,0.00,pywws,2013-02-15 12:47:00,
2013-02-15 12:52:00,49.8,37.7,29.94,South,180,0.0,0.0,63,0.00,,,0.00,pywws,2013-02-15 12:52:00,
2013-02-15 12:57:00,50.7,38.2,29.94,SW,225,0.0,0.0,62,0.00,,,0.00,pywws,2013-02-15 12:57:00,
2013-02-15 13:05:00,50.9,38.8,29.93,West,270,0.0,0.0,63,0.00,,,0.00,pywws,2013-02-15 13:05:00,
2013-02-15 13:10:00,51.6,38.2,29.94,North,0,0.0,0.0,60,0.00,,,0.00,pywws,2013-02-15 13:10:00,
2013-02-15 13:16:00,52.3,37.6,29.94,West,270,0.0,0.0,57,0.00,,,0.00,pywws,2013-02-15 13:16:00,
2013-02-15 13:21:00,52.3,38.4,29.94,North,-999,0.0,0.0,59,0.00,,,0.00,pywws,2013-02-15 13:21:00,
2013-02-15 13:26:00,51.8,37.9,29.94,West,270,0.0,0.0,59,0.00,,,0.00,pywws,2013-02-15 13:26:00,
2013-02-15 13:31:00,50.9,37.1,29.94,NW,315,0.0,0.0,59,0.00,,,0.00,pywws,2013-02-15 13:31:00,
2013-02-15 13:36:00,51.3,37.4,29.93,NW,315,0.0,0.0,59,0.00,,,0.00,pywws,2013-02-15 13:36:00,
2013-02-15 13:41:00,52.0,36.8,29.94,South,180,0.0,0.0,56,0.00,,,0.00,pywws,2013-02-15 13:41:00,
2013-02-15 13:46:00,52.0,36.8,29.94,NW,315,0.0,0.0,56,0.00,,,0.00,pywws,2013-02-15 13:46:00,
2013-02-15 13:51:00,51.3,34.2,29.94,South,180,0.0,0.0,52,0.00,,,0.00,pywws,2013-02-15 13:51:00,
2013-02-15 13:56:00,50.4,34.4,29.94,South,180,0.0,0.0,54,0.00,,,0.00,pywws,2013-02-15 13:56:00,
2013-02-15 14:05:00,50.0,34.5,29.94,South,180,0.0,0.0,55,0.00,,,0.00,pywws,2013-02-15 14:05:00,
2013-02-15 14:10:00,49.3,35.1,29.94,SW,225,0.0,0.0,58,0.00,,,0.00,pywws,2013-02-15 14:10:00,
2013-02-15 14:16:00,49.3,35.1,29.94,North,0,0.0,0.0,58,0.00,,,0.00,pywws,2013-02-15 14:16:00,
2013-02-15 14:21:00,49.1,35.0,29.94,SW,225,0.0,0.0,58,0.00,,,0.00,pywws,2013-02-15 14:21:00,
2013-02-15 14:26:00,49.3,35.1,29.94,SSW,202,0.0,0.0,58,0.00,,,0.00,pywws,2013-02-15 14:26:00,
2013-02-15 14:32:00,49.8,34.8,29.94,WSW,248,0.0,0.0,56,0.00,,,0.00,pywws,2013-02-15 14:32:00,
2013-02-15 14:37:00,50.2,35.1,29.94,West,270,0.0,0.0,56,0.00,,,0.00,pywws,2013-02-15 14:37:00,
2013-02-15 14:42:00,50.5,34.1,29.94,NE,45,0.0,0.0,53,0.00,,,0.00,pywws,2013-02-15 14:42:00,
2013-02-15 14:47:00,50.9,33.4,29.94,NW,315,0.0,0.0,51,0.00,,,0.00,pywws,2013-02-15 14:47:00,
2013-02-15 14:52:00,51.4,33.9,29.94,North,0,0.0,0.0,51,0.00,,,0.00,pywws,2013-02-15 14:52:00,
2013-02-15 14:57:00,51.3,33.8,29.94,SW,225,0.0,0.0,51,0.00,,,0.00,pywws,2013-02-15 14:57:00,
2013-02-15 15:05:00,51.3,33.8,29.94,SW,225,0.0,0.0,51,0.00,,,0.00,pywws,2013-02-15 15:05:00,
2013-02-15 15:10:00,51.3,33.8,29.94,NE,45,0.0,0.0,51,0.00,,,0.00,pywws,2013-02-15 15:10:00,
2013-02-15 15:16:00,50.2,35.1,29.95,North,0,0.0,0.0,56,0.00,,,0.00,pywws,2013-02-15 15:16:00,
2013-02-15 15:21:00,50.0,35.4,29.94,SSW,202,0.0,0.0,57,0.00,,,0.00,pywws,2013-02-15 15:21:00,
2013-02-15 15:26:00,50.0,35.4,29.95,NW,315,0.0,0.0,57,0.00,,,0.00,pywws,2013-02-15 15:26:00,
2013-02-15 15:31:00,49.8,34.8,29.94,NW,315,0.0,0.0,56,0.00,,,0.00,pywws,2013-02-15 15:31:00,
2013-02-15 15:36:00,49.8,35.2,29.95,North,0,0.0,0.0,57,0.00,,,0.00,pywws,2013-02-15 15:36:00,
2013-02-15 15:41:00,49.8,35.2,29.95,SW,225,0.0,0.0,57,0.00,,,0.00,pywws,2013-02-15 15:41:00,
2013-02-15 15:46:00,49.8,35.2,29.95,NW,315,0.0,0.0,57,0.00,,,0.00,pywws,2013-02-15 15:46:00,
2013-02-15 15:52:00,49.6,34.6,29.96,SE,135,0.0,0.0,56,0.00,,,0.00,pywws,2013-02-15 15:52:00,
2013-02-15 15:57:00,49.5,34.4,29.95,SW,225,0.0,0.0,56,0.00,,,0.00,pywws,2013-02-15 15:57:00,
2013-02-15 16:05:00,49.3,34.3,29.96,SW,225,0.0,0.0,56,0.00,,,0.00,pywws,2013-02-15 16:05:00,
2013-02-15 16:10:00,49.3,34.3,29.96,West,270,0.0,0.0,56,0.00,,,0.00,pywws,2013-02-15 16:10:00,
2013-02-15 16:16:00,49.1,34.1,29.96,NW,315,0.0,0.0,56,0.00,,,0.00,pywws,2013-02-15 16:16:00,
2013-02-15 16:21:00,49.1,34.5,29.96,NW,315,0.0,0.0,57,0.00,,,0.00,pywws,2013-02-15 16:21:00,
2013-02-15 16:26:00,48.9,34.4,29.95,SW,225,0.0,0.0,57,0.00,,,0.00,pywws,2013-02-15 16:26:00,
2013-02-15 16:31:00,48.9,34.4,29.96,NW,315,0.0,0.0,57,0.00,,,0.00,pywws,2013-02-15 16:31:00,
2013-02-15 16:36:00,48.7,34.6,29.96,SW,225,0.0,0.0,58,0.00,,,0.00,pywws,2013-02-15 16:36:00,
2013-02-15 16:41:00,48.7,35.1,29.96,SW,225,0.0,0.0,59,0.00,,,0.00,pywws,2013-02-15 16:41:00,
2013-02-15 16:46:00,48.6,34.9,29.96,SW,225,0.0,0.0,59,0.00,,,0.00,pywws,2013-02-15 16:46:00,
2013-02-15 16:52:00,48.6,35.3,29.96,East,90,0.0,0.0,60,0.00,,,0.00,pywws,2013-02-15 16:52:00,
2013-02-15 16:57:00,48.4,35.1,29.96,ENE,68,0.0,0.0,60,0.00,,,0.00,pywws,2013-02-15 16:57:00,
2013-02-15 17:05:00,48.4,35.1,29.96,SW,225,0.0,0.0,60,0.00,,,0.00,pywws,2013-02-15 17:05:00,
2013-02-15 17:10:00,47.7,35.3,29.96,North,0,0.0,0.0,62,0.00,,,0.00,pywws,2013-02-15 17:10:00,
2013-02-15 17:16:00,47.3,35.4,29.96,West,270,0.0,0.0,63,0.00,,,0.00,pywws,2013-02-15 17:16:00,
2013-02-15 17:21:00,47.1,35.2,29.97,North,0,0.0,0.0,63,0.00,,,0.00,pywws,2013-02-15 17:21:00,
2013-02-15 17:26:00,46.8,35.2,29.97,North,0,0.0,0.0,64,0.00,,,0.00,pywws,2013-02-15 17:26:00,
2013-02-15 17:31:00,46.8,35.2,29.97,SW,225,0.0,0.0,64,0.00,,,0.00,pywws,2013-02-15 17:31:00,
2013-02-15 17:36:00,45.7,34.6,29.97,North,0,0.0,0.0,65,0.00,,,0.00,pywws,2013-02-15 17:36:00,
2013-02-15 17:41:00,45.0,34.3,29.97,North,0,0.0,0.0,66,0.00,,,0.00,pywws,2013-02-15 17:41:00,
2013-02-15 17:46:00,44.2,34.4,29.97,North,0,0.0,0.0,68,0.00,,,0.00,pywws,2013-02-15 17:46:00,
2013-02-15 17:51:00,43.3,34.2,29.97,North,0,0.0,0.0,70,0.00,,,0.00,pywws,2013-02-15 17:51:00,
2013-02-15 17:56:00,42.8,34.1,29.98,North,0,0.0,0.0,71,0.00,,,0.00,pywws,2013-02-15 17:56:00,
2013-02-15 18:01:00,42.3,33.5,29.98,North,0,0.0,0.0,71,0.00,,,0.00,pywws,2013-02-15 18:01:00,
2013-02-15 18:07:00,42.3,33.5,29.98,North,0,0.0,0.0,71,0.00,,,0.00,pywws,2013-02-15 18:07:00,
2013-02-15 18:12:00,41.2,33.9,29.98,North,0,0.0,0.0,75,0.00,,,0.00,pywws,2013-02-15 18:12:00,
2013-02-15 18:17:00,41.2,33.9,29.98,North,0,0.0,0.0,75,0.00,,,0.00,pywws,2013-02-15 18:17:00,
2013-02-15 18:22:00,40.5,33.5,29.98,North,0,0.0,0.0,76,0.00,,,0.00,pywws,2013-02-15 18:22:00,
2013-02-15 18:27:00,40.3,33.7,29.98,North,0,0.0,0.0,77,0.00,,,0.00,pywws,2013-02-15 18:27:00,
2013-02-15 18:32:00,39.4,33.4,29.99,North,0,0.0,0.0,79,0.00,,,0.00,pywws,2013-02-15 18:32:00,
2013-02-15 18:37:00,39.2,33.6,29.99,North,0,0.0,0.0,80,0.00,,,0.00,pywws,2013-02-15 18:37:00,
2013-02-15 18:43:00,39.0,34.0,29.99,SW,225,0.0,0.0,82,0.00,,,0.00,pywws,2013-02-15 18:43:00,
2013-02-15 18:48:00,39.2,34.2,29.99,SW,225,0.0,0.0,82,0.00,,,0.00,pywws,2013-02-15 18:48:00,
2013-02-15 18:53:00,39.2,34.5,29.99,SW,225,0.0,0.0,83,0.00,,,0.00,pywws,2013-02-15 18:53:00,
2013-02-15 18:58:00,39.0,34.3,29.99,SW,225,0.0,0.0,83,0.00,,,0.00,pywws,2013-02-15 18:58:00,
2013-02-15 19:05:00,39.0,34.3,29.99,SW,225,0.0,0.0,83,0.00,,,0.00,pywws,2013-02-15 19:05:00,
2013-02-15 19:07:00,39.0,34.3,29.99,SW,225,0.0,0.0,83,0.00,,,0.00,pywws,2013-02-15 19:07:00,
2013-02-15 19:10:00,39.2,34.5,29.99,SW,225,0.0,0.0,83,0.00,,,0.00,pywws,2013-02-15 19:10:00,
2013-02-15 19:16:00,39.0,34.3,29.99,SW,225,0.0,0.0,83,0.00,,,0.00,pywws,2013-02-15 19:16:00,
2013-02-15 19:21:00,39.2,34.5,29.99,SW,225,0.0,0.0,83,0.00,,,0.00,pywws,2013-02-15 19:21:00,
2013-02-15 19:26:00,39.2,34.8,29.99,SW,225,0.0,0.0,84,0.00,,,0.00,pywws,2013-02-15 19:26:00,
2013-02-15 19:31:00,39.2,34.8,30.00,SW,225,0.0,0.0,84,0.00,,,0.00,pywws,2013-02-15 19:31:00,
2013-02-15 19:36:00,39.7,35.3,30.00,SW,225,0.0,0.0,84,0.00,,,0.00,pywws,2013-02-15 19:36:00,
2013-02-15 19:42:00,39.9,35.2,30.00,NE,45,0.0,0.0,83,0.00,,,0.00,pywws,2013-02-15 19:42:00,
2013-02-15 19:47:00,40.1,35.4,30.00,NE,45,0.0,0.0,83,0.00,,,0.00,pywws,2013-02-15 19:47:00,
2013-02-15 19:52:00,40.3,35.5,30.00,NE,45,0.0,0.0,83,0.00,,,0.00,pywws,2013-02-15 19:52:00,
2013-02-15 19:57:00,40.6,35.6,30.00,NE,45,0.0,0.0,82,0.00,,,0.00,pywws,2013-02-15 19:57:00,
2013-02-15 20:05:00,40.6,35.6,30.00,NE,45,0.0,0.0,82,0.00,,,0.00,pywws,2013-02-15 20:05:00,
2013-02-15 20:10:00,40.6,35.6,30.00,NE,45,0.0,0.0,82,0.00,,,0.00,pywws,2013-02-15 20:10:00,
2013-02-15 20:15:00,41.2,35.8,30.01,SE,135,0.0,0.0,81,0.00,,,0.00,pywws,2013-02-15 20:15:00,
2013-02-15 20:19:00,41.5,35.8,30.01,SE,135,0.0,0.0,80,0.00,,,0.00,pywws,2013-02-15 20:19:00,
2013-02-15 20:20:00,41.7,36.0,30.00,SE,135,0.0,0.0,80,0.00,,,0.00,pywws,2013-02-15 20:20:00,
2013-02-15 20:25:00,41.5,35.8,30.01,SE,135,0.0,0.0,80,0.00,,,0.00,pywws,2013-02-15 20:25:00,
2013-02-15 20:30:00,41.9,35.9,30.01,East,90,0.0,0.0,79,0.00,,,0.00,pywws,2013-02-15 20:30:00,
2013-02-15 20:35:00,42.1,35.7,30.01,SE,135,0.0,0.0,78,0.00,,,0.00,pywws,2013-02-15 20:35:00,
2013-02-15 20:40:00,42.4,35.7,30.01,East,90,0.0,0.0,77,0.00,,,0.00,pywws,2013-02-15 20:40:00,
2013-02-15 20:45:00,42.4,35.7,30.00,WNW,292,0.0,0.0,77,0.00,,,0.00,pywws,2013-02-15 20:45:00,
2013-02-15 20:51:00,42.6,35.9,30.01,West,270,0.0,0.0,77,0.00,,,0.00,pywws,2013-02-15 20:51:00,
2013-02-15 20:56:00,42.6,35.6,30.01,SE,135,0.0,0.0,76,0.00,,,0.00,pywws,2013-02-15 20:56:00,
2013-02-15 21:05:00,42.4,35.4,30.01,NW,315,0.0,0.0,76,0.00,,,0.00,pywws,2013-02-15 21:05:00,
2013-02-15 21:10:00,42.6,35.6,30.01,East,90,0.0,0.0,76,0.00,,,0.00,pywws,2013-02-15 21:10:00,
2013-02-15 21:16:00,42.6,35.3,30.01,East,90,0.0,0.0,75,0.00,,,0.00,pywws,2013-02-15 21:16:00,
2013-02-15 21:21:00,42.6,35.3,30.01,East,90,0.0,0.0,75,0.00,,,0.00,pywws,2013-02-15 21:21:00,
2013-02-15 21:26:00,42.6,35.3,30.01,East,90,0.0,0.0,75,0.00,,,0.00,pywws,2013-02-15 21:26:00,
2013-02-15 21:31:00,42.6,35.3,30.01,SE,135,0.0,0.0,75,0.00,,,0.00,pywws,2013-02-15 21:31:00,
2013-02-15 21:36:00,42.6,35.3,30.01,East,90,0.0,0.0,75,0.00,,,0.00,pywws,2013-02-15 21:36:00,
2013-02-15 21:41:00,42.6,35.3,30.01,East,90,0.0,0.0,75,0.00,,,0.00,pywws,2013-02-15 21:41:00,
2013-02-15 21:46:00,42.6,35.3,30.01,NE,45,0.0,0.0,75,0.00,,,0.00,pywws,2013-02-15 21:46:00,
2013-02-15 21:51:00,42.6,35.3,30.01,SE,135,0.0,0.0,75,0.00,,,0.00,pywws,2013-02-15 21:51:00,
2013-02-15 21:56:00,42.3,34.9,30.01,SE,135,0.0,0.0,75,0.00,,,0.00,pywws,2013-02-15 21:56:00,
2013-02-15 22:01:00,42.6,35.3,30.01,NE,45,0.0,0.0,75,0.00,,,0.00,pywws,2013-02-15 22:01:00,
2013-02-15 22:07:00,42.6,35.3,30.01,NE,45,0.0,0.0,75,0.00,,,0.00,pywws,2013-02-15 22:07:00,
2013-02-15 22:12:00,42.4,35.1,30.01,South,180,0.0,0.0,75,0.00,,,0.00,pywws,2013-02-15 22:12:00,
2013-02-15 22:17:00,42.4,35.1,30.01,SE,135,0.0,0.0,75,0.00,,,0.00,pywws,2013-02-15 22:17:00,
2013-02-15 22:22:00,42.4,35.1,30.01,SE,135,0.0,0.0,75,0.00,,,0.00,pywws,2013-02-15 22:22:00,
2013-02-15 22:27:00,42.3,34.9,30.01,NE,45,0.0,0.0,75,0.00,,,0.00,pywws,2013-02-15 22:27:00,
2013-02-15 22:32:00,42.1,35.1,30.01,NE,45,0.0,0.0,76,0.00,,,0.00,pywws,2013-02-15 22:32:00,
2013-02-15 22:38:00,42.1,35.1,30.02,East,90,0.0,0.0,76,0.00,,,0.00,pywws,2013-02-15 22:38:00,
2013-02-15 22:43:00,42.1,35.1,30.01,SE,135,0.0,0.0,76,0.00,,,0.00,pywws,2013-02-15 22:43:00,
2013-02-15 22:48:00,42.1,35.1,30.01,SE,135,0.0,0.0,76,0.00,,,0.00,pywws,2013-02-15 22:48:00,
2013-02-15 22:53:00,42.1,35.4,30.02,East,90,0.0,0.0,77,0.00,,,0.00,pywws,2013-02-15 22:53:00,
2013-02-15 22:58:00,42.3,35.6,30.02,SE,135,0.0,0.0,77,0.00,,,0.00,pywws,2013-02-15 22:58:00,
2013-02-15 23:05:00,42.3,35.2,30.02,SE,135,0.0,0.0,76,0.00,,,0.00,pywws,2013-02-15 23:05:00,
2013-02-15 23:10:00,42.1,35.4,30.02,South,180,0.0,0.0,77,0.00,,,0.00,pywws,2013-02-15 23:10:00,
2013-02-15 23:16:00,42.1,35.7,30.02,West,270,0.0,0.0,78,0.00,,,0.00,pywws,2013-02-15 23:16:00,
2013-02-15 23:21:00,41.9,35.5,30.02,West,270,0.0,0.0,78,0.00,,,0.00,pywws,2013-02-15 23:21:00,
2013-02-15 23:26:00,41.9,35.5,30.02,NW,315,0.0,0.0,78,0.00,,,0.00,pywws,2013-02-15 23:26:00,
2013-02-15 23:31:00,41.9,35.9,30.02,South,180,0.0,0.0,79,0.00,,,0.00,pywws,2013-02-15 23:31:00,
2013-02-15 23:36:00,41.9,35.9,30.02,SW,225,0.0,0.0,79,0.00,,,0.00,pywws,2013-02-15 23:36:00,
2013-02-15 23:42:00,41.9,35.9,30.02,South,180,0.0,0.0,79,0.00,,,0.00,pywws,2013-02-15 23:42:00,
2013-02-15 23:47:00,41.9,35.9,30.02,NE,45,0.0,0.0,79,0.00,,,0.00,pywws,2013-02-15 23:47:00,
2013-02-15 23:52:00,41.9,36.2,30.02,NE,45,0.0,0.0,80,0.00,,,0.00,pywws,2013-02-15 23:52:00,
2013-02-15 23:55:00,42.1,36.4,30.02,NW,315,0.0,0.0,80,0.00,,,0.00,pywws,2013-02-15 23:55:00,
2013-02-15 23:57:00,42.1,36.0,30.02,SE,135,0.0,0.0,79,0.00,,,0.00,pywws,2013-02-15 23:57:00,
2013-02-15 23:58:00,42.1,36.0,30.02,SE,135,0.0,0.0,79,0.00,,,0.00,pywws,2013-02-15 23:58:00,